createdAt,value
2023-03-16T00:05:57.631Z,3.5
2023-03-16T00:11:51.044Z,3.4
2023-03-16T00:18:08.058Z,3.2
2023-03-16T00:30:30.998Z,3.3
2023-03-16T00:36:33.976Z,3.3
2023-03-16T00:42:40.632Z,3.2
2023-03-16T00:48:49.290Z,3.4
2023-03-16T01:01:26.521Z,3.3
2023-03-16T01:13:38.840Z,3.3
2023-03-16T01:19:31.254Z,3.2
2023-03-16T01:25:41.039Z,3.4
2023-03-16T01:37:58.140Z,3.2
2023-03-16T01:56:27.810Z,3.2
2023-03-16T02:02:39.498Z,3.3
2023-03-16T02:08:52.316Z,3.2
2023-03-16T02:14:46.945Z,3
2023-03-16T02:20:55.636Z,3
2023-03-16T02:39:44.286Z,3
2023-03-16T02:45:50.725Z,3
2023-03-16T02:51:57.746Z,2.9
2023-03-16T02:57:59.164Z,2.9
2023-03-16T03:04:03.049Z,2.9
2023-03-16T03:10:02.809Z,2.9
2023-03-16T03:15:59.470Z,2.9
2023-03-16T03:21:55.834Z,2.9
2023-03-16T03:28:01.397Z,2.9
2023-03-16T03:34:10.637Z,2.8
2023-03-16T03:40:02.381Z,2.9
2023-03-16T03:52:07.150Z,2.8
2023-03-16T03:58:05.735Z,2.7
2023-03-16T04:04:16.872Z,2.8
2023-03-16T04:10:14.709Z,2.8
2023-03-16T04:16:13.411Z,2.9
2023-03-16T04:22:18.757Z,2.9
2023-03-16T04:28:25.479Z,2.9
2023-03-16T04:34:21.088Z,3
2023-03-16T04:40:18.413Z,2.9
2023-03-16T05:04:46.776Z,3
2023-03-16T05:10:56.352Z,2.9
2023-03-16T05:23:11.261Z,2.9
2023-03-16T05:30:19.064Z,3
2023-03-16T05:36:08.092Z,2.9
2023-03-16T05:42:03.625Z,3.1
2023-03-16T05:47:55.071Z,3
2023-03-16T05:53:44.991Z,3.1
2023-03-16T05:59:32.497Z,3.2
2023-03-16T06:05:21.627Z,3.1
2023-03-16T06:11:11.334Z,3.1
2023-03-16T06:17:03.179Z,3.2
2023-03-16T06:22:54.255Z,3.3
2023-03-16T06:28:51.380Z,3.3
2023-03-16T06:34:44.396Z,3.3
2023-03-16T06:40:37.385Z,3.3
2023-03-16T06:46:29.157Z,3.4
2023-03-16T06:52:21.499Z,3.5
2023-03-16T06:58:11.843Z,3.5
2023-03-16T07:04:02.869Z,3.7
2023-03-16T07:09:53.050Z,3.8
2023-03-16T07:15:56.397Z,4
2023-03-16T07:21:51.776Z,4.1
2023-03-16T07:27:43.511Z,4.1
2023-03-16T07:33:34.055Z,4.3
2023-03-16T07:39:24.595Z,4.4
2023-03-16T07:45:15.245Z,4.6
2023-03-16T07:51:04.899Z,4.7
2023-03-16T07:56:54.267Z,5
2023-03-16T08:02:43.803Z,5
2023-03-16T08:08:32.938Z,5
2023-03-16T08:14:30.512Z,5.2
2023-03-16T08:20:20.543Z,5.2
2023-03-16T08:26:11.086Z,5.3
2023-03-16T08:32:03.148Z,5.3
2023-03-16T08:37:54.501Z,5.5
2023-03-16T08:43:47.117Z,5.6
2023-03-16T08:49:40.928Z,5.8
2023-03-16T08:55:32.395Z,5.9
2023-03-16T09:01:22.347Z,6
2023-03-16T09:07:12.920Z,6.1
2023-03-16T09:13:03.530Z,6.2
2023-03-16T09:18:54.387Z,6.2
2023-03-16T09:24:45.891Z,6.3
2023-03-16T09:30:34.682Z,6.6
2023-03-16T09:36:27.209Z,6.7
2023-03-16T09:42:17.922Z,6.8
2023-03-16T09:48:09.289Z,7
2023-03-16T09:54:00.765Z,7.1
2023-03-16T09:59:52.243Z,7.1
2023-03-16T10:05:43.090Z,7.1
2023-03-16T10:11:34.312Z,7.3
2023-03-16T10:17:25.180Z,7.3
2023-03-16T10:23:16.282Z,7.6
2023-03-16T10:29:07.061Z,7.7
2023-03-16T10:34:57.445Z,7.7
2023-03-16T10:40:51.569Z,7.8
2023-03-16T10:46:42.426Z,8
2023-03-16T10:52:34.129Z,8.2
2023-03-16T10:58:25.683Z,8.3
2023-03-16T11:04:18.122Z,8.4
2023-03-16T11:10:09.190Z,8.7
2023-03-16T11:16:00.031Z,8.9
2023-03-16T11:21:52.185Z,9.2
2023-03-16T11:27:43.840Z,9.3
2023-03-16T11:33:34.749Z,9.5
2023-03-16T11:39:26.069Z,9.5
2023-03-16T11:45:16.835Z,9.7
2023-03-16T11:51:07.095Z,9.8
2023-03-16T11:56:58.574Z,9.8
2023-03-16T12:02:49.914Z,9.9
2023-03-16T12:08:41.353Z,10.3
2023-03-16T12:14:29.531Z,10.5
2023-03-16T12:20:20.107Z,10.5
2023-03-16T12:26:11.452Z,10.5
2023-03-16T12:32:02.346Z,10.7
2023-03-16T12:37:53.388Z,10.8
2023-03-16T12:43:44.896Z,10.8
2023-03-16T12:49:36.632Z,11.2
2023-03-16T12:55:27.687Z,11.3
2023-03-16T13:01:19.184Z,11.4
2023-03-16T13:07:13.247Z,11.4
2023-03-16T13:13:05.341Z,11.6
2023-03-16T13:18:58.087Z,11.6
2023-03-16T13:24:50.415Z,11.6
2023-03-16T13:30:41.630Z,11.5
2023-03-16T13:36:34.936Z,11.6
2023-03-16T13:42:29.474Z,11.7
2023-03-16T13:48:25.445Z,11.8
2023-03-16T13:54:17.804Z,11.9
2023-03-16T14:06:01.257Z,11.8
2023-03-16T14:11:55.092Z,11.9
2023-03-16T14:17:47.823Z,12
2023-03-16T14:23:51.463Z,11.8
2023-03-16T14:29:44.661Z,11.6
2023-03-16T14:35:36.605Z,11.5
2023-03-16T14:47:24.599Z,11.6
2023-03-16T15:11:47.090Z,11.8
2023-03-16T15:23:36.761Z,11.9
2023-03-16T15:29:33.911Z,12
2023-03-16T15:35:26.525Z,11.9
2023-03-16T15:53:55.109Z,11.8
2023-03-16T16:12:04.578Z,11.4
2023-03-16T16:31:08.428Z,11.2
2023-03-16T16:36:59.132Z,11.1
2023-03-16T16:42:51.920Z,11
2023-03-16T17:00:58.249Z,10.8
2023-03-16T17:07:13.232Z,10.7
2023-03-16T17:13:06.117Z,10.6
2023-03-16T17:18:57.823Z,10.5
2023-03-16T17:24:49.122Z,10.5
2023-03-16T17:30:45.561Z,10.4
2023-03-16T17:36:41.993Z,10.3
2023-03-16T17:48:48.203Z,10.1
2023-03-16T18:07:15.897Z,9.9
2023-03-16T18:13:33.737Z,9.8
2023-03-16T18:50:55.977Z,9.6
2023-03-16T19:27:01.956Z,9.3
2023-03-16T19:44:56.452Z,9.3
2023-03-16T20:08:50.855Z,9.1
2023-03-16T20:15:02.510Z,9.1
2023-03-16T20:21:11.866Z,9
2023-03-16T20:27:11.842Z,9.1
2023-03-16T21:20:51.633Z,8.8
2023-03-16T22:18:01.394Z,8.6
2023-03-16T22:24:01.688Z,8.6
2023-03-16T22:55:04.222Z,8.5
2023-03-16T23:01:07.767Z,8.5
2023-03-16T23:25:03.633Z,8.5
2023-03-16T23:37:09.548Z,8.4
2023-03-16T23:43:08.670Z,8.4
2023-03-16T23:55:10.550Z,8.3
